createdAt,value
2023-02-22T00:00:50.104Z,4.50
2023-02-22T00:03:25.109Z,4.50
2023-02-22T00:05:55.378Z,4.50
2023-02-22T00:08:25.233Z,4.50
2023-02-22T00:10:55.421Z,4.50
2023-02-22T00:13:23.873Z,4.40
2023-02-22T00:15:52.093Z,4.40
2023-02-22T00:18:20.779Z,4.40
2023-02-22T00:20:49.227Z,4.30
2023-02-22T00:23:20.078Z,4.40
2023-02-22T00:25:49.575Z,4.40
2023-02-22T00:28:20.022Z,4.40
2023-02-22T00:30:48.319Z,4.40
2023-02-22T00:33:17.462Z,4.40
2023-02-22T00:35:46.736Z,4.40
2023-02-22T00:38:16.064Z,4.30
2023-02-22T00:40:45.353Z,4.30
2023-02-22T00:43:13.960Z,4.30
2023-02-22T00:45:44.316Z,4.30
2023-02-22T00:48:13.283Z,4.30
2023-02-22T00:50:41.789Z,4.30
2023-02-22T00:53:10.459Z,4.30
2023-02-22T00:55:39.567Z,4.30
2023-02-22T00:58:08.840Z,4.20
2023-02-22T01:00:38.774Z,4.20
2023-02-22T01:03:13.327Z,4.20
2023-02-22T01:05:41.968Z,4.20
2023-02-22T01:08:11.813Z,4.10
2023-02-22T01:10:40.923Z,4.10
2023-02-22T01:13:12.335Z,4.10
2023-02-22T01:15:41.989Z,4.10
2023-02-22T01:18:12.871Z,4.10
2023-02-22T01:20:41.254Z,4.10
2023-02-22T01:23:10.657Z,4.10
2023-02-22T01:25:38.978Z,4.10
2023-02-22T01:28:09.947Z,4.10
2023-02-22T01:30:38.518Z,4.10
2023-02-22T01:33:08.734Z,4.10
2023-02-22T01:35:40.943Z,4.00
2023-02-22T01:38:10.025Z,3.90
2023-02-22T01:40:42.010Z,3.90
2023-02-22T01:43:18.470Z,3.90
2023-02-22T01:45:54.352Z,3.90
2023-02-22T01:48:31.877Z,3.90
2023-02-22T01:51:09.203Z,3.80
2023-02-22T01:53:41.027Z,3.80
2023-02-22T01:56:10.266Z,3.80
2023-02-22T01:58:43.271Z,3.80
2023-02-22T02:01:20.703Z,3.80
2023-02-22T02:03:51.572Z,3.80
2023-02-22T02:06:23.231Z,3.70
2023-02-22T02:09:00.751Z,3.70
2023-02-22T02:11:30.126Z,3.60
2023-02-22T02:14:00.120Z,3.60
2023-02-22T02:16:35.720Z,3.60
2023-02-22T02:19:15.840Z,3.60
2023-02-22T02:22:09.718Z,3.50
2023-02-22T02:25:23.567Z,3.50
2023-02-22T02:28:18.346Z,3.50
2023-02-22T02:31:48.532Z,3.50
2023-02-22T02:34:29.851Z,3.50
2023-02-22T02:37:04.291Z,3.40
2023-02-22T02:39:40.805Z,3.40
2023-02-22T02:42:21.197Z,3.40
2023-02-22T02:44:55.690Z,3.40
2023-02-22T02:47:30.221Z,3.40
2023-02-22T02:50:06.779Z,3.30
2023-02-22T02:52:41.162Z,3.30
2023-02-22T02:55:19.937Z,3.30
2023-02-22T02:57:51.987Z,3.30
2023-02-22T03:00:29.995Z,3.20
2023-02-22T03:03:13.506Z,3.20
2023-02-22T03:06:11.839Z,3.10
2023-02-22T03:08:44.751Z,3.00
2023-02-22T03:11:19.988Z,3.00
2023-02-22T03:14:08.640Z,3.00
2023-02-22T03:16:53.514Z,3.00
2023-02-22T03:19:35.312Z,3.00
2023-02-22T03:22:16.445Z,3.00
2023-02-22T03:24:53.549Z,3.00
2023-02-22T03:27:30.095Z,3.00
2023-02-22T03:30:06.607Z,2.90
2023-02-22T03:32:44.082Z,2.90
2023-02-22T03:35:19.515Z,2.80
2023-02-22T03:38:00.433Z,2.90
2023-02-22T03:40:36.446Z,2.90
2023-02-22T03:43:09.131Z,2.90
2023-02-22T03:45:47.825Z,2.80
2023-02-22T03:48:24.389Z,2.80
2023-02-22T03:50:58.563Z,2.80
2023-02-22T03:53:37.274Z,2.70
2023-02-22T03:56:11.609Z,2.60
2023-02-22T03:58:45.561Z,2.60
2023-02-22T04:01:16.193Z,2.60
2023-02-22T04:03:47.591Z,2.60
2023-02-22T04:06:15.786Z,2.70
2023-02-22T04:08:46.331Z,2.60
2023-02-22T04:11:18.563Z,2.60
2023-02-22T04:13:51.291Z,2.60
2023-02-22T04:16:19.579Z,2.50
2023-02-22T04:18:49.359Z,2.50
2023-02-22T04:21:19.839Z,2.50
2023-02-22T04:23:59.367Z,2.60
2023-02-22T04:26:27.539Z,2.60
2023-02-22T04:28:58.323Z,2.50
2023-02-22T04:31:26.700Z,2.60
2023-02-22T04:34:00.618Z,2.60
2023-02-22T04:36:32.082Z,2.60
2023-02-22T04:39:02.674Z,2.60
2023-02-22T04:41:31.607Z,2.60
2023-02-22T04:44:17.300Z,2.60
2023-02-22T04:46:47.013Z,2.50
2023-02-22T04:49:17.864Z,2.60
2023-02-22T04:51:48.756Z,2.60
2023-02-22T04:54:20.843Z,2.60
2023-02-22T04:56:51.303Z,2.60
2023-02-22T04:59:19.828Z,2.60
2023-02-22T05:01:48.064Z,2.60
2023-02-22T05:04:18.519Z,2.60
2023-02-22T05:06:50.321Z,2.70
2023-02-22T05:09:24.774Z,2.70
2023-02-22T05:11:55.766Z,2.70
2023-02-22T05:14:30.130Z,2.70
2023-02-22T05:17:01.315Z,2.60
2023-02-22T05:19:32.866Z,2.60
2023-02-22T05:22:01.071Z,2.60
2023-02-22T05:24:35.588Z,2.60
2023-02-22T05:27:05.352Z,2.60
2023-02-22T05:29:35.840Z,2.60
2023-02-22T05:32:06.956Z,2.60
2023-02-22T05:34:42.469Z,2.60
2023-02-22T05:37:13.437Z,2.60
2023-02-22T05:39:46.593Z,2.60
2023-02-22T05:42:15.260Z,2.60
2023-02-22T05:44:44.608Z,2.60
2023-02-22T05:47:12.775Z,2.60
2023-02-22T05:49:44.525Z,2.70
2023-02-22T05:52:17.053Z,2.70
2023-02-22T05:54:48.789Z,2.80
2023-02-22T05:57:17.559Z,2.80
2023-02-22T05:59:47.264Z,2.80
2023-02-22T06:02:17.834Z,2.80
2023-02-22T06:04:46.080Z,2.80
2023-02-22T06:07:15.699Z,2.80
2023-02-22T06:09:50.946Z,2.80
2023-02-22T06:12:20.870Z,2.80
2023-02-22T06:14:52.164Z,2.80
2023-02-22T06:17:23.214Z,2.80
2023-02-22T06:19:52.480Z,2.70
2023-02-22T06:22:25.823Z,2.80
2023-02-22T06:25:12.329Z,2.80
2023-02-22T06:27:43.931Z,2.80
2023-02-22T06:30:18.577Z,2.80
2023-02-22T06:32:48.596Z,2.80
2023-02-22T06:35:17.345Z,2.90
2023-02-22T06:37:46.560Z,3.00
2023-02-22T06:40:18.830Z,3.00
2023-02-22T06:42:49.664Z,3.10
2023-02-22T06:45:20.179Z,3.10
2023-02-22T06:47:50.364Z,3.20
2023-02-22T06:50:26.180Z,3.30
2023-02-22T06:52:56.858Z,3.30
2023-02-22T06:55:29.482Z,3.30
2023-02-22T06:58:03.825Z,3.30
2023-02-22T07:00:34.453Z,3.30
2023-02-22T07:03:05.965Z,3.30
2023-02-22T07:05:34.378Z,3.40
2023-02-22T07:08:18.335Z,3.40
2023-02-22T07:10:50.737Z,3.30
2023-02-22T07:13:19.208Z,3.40
2023-02-22T07:15:48.917Z,3.40
2023-02-22T07:18:18.155Z,3.60
2023-02-22T07:21:01.534Z,3.60
2023-02-22T07:23:32.915Z,3.70
2023-02-22T07:26:03.858Z,3.80
2023-02-22T07:28:34.135Z,3.90
2023-02-22T07:31:02.679Z,4.10
2023-02-22T07:33:39.769Z,4.10
2023-02-22T07:36:10.321Z,4.30
2023-02-22T07:38:41.761Z,4.40
2023-02-22T07:41:24.144Z,4.50
2023-02-22T07:43:52.323Z,4.70
2023-02-22T07:46:28.943Z,4.80
2023-02-22T07:48:59.709Z,4.80
2023-02-22T07:51:44.883Z,4.90
2023-02-22T07:54:13.248Z,4.90
2023-02-22T07:56:50.198Z,5.20
2023-02-22T07:59:22.365Z,5.40
2023-02-22T08:01:53.687Z,5.50
2023-02-22T08:04:24.219Z,5.60
2023-02-22T08:06:57.136Z,5.80
2023-02-22T08:09:30.773Z,5.90
2023-02-22T08:12:24.768Z,5.90
2023-02-22T08:14:59.595Z,6.00
2023-02-22T08:17:30.948Z,6.10
2023-02-22T08:20:03.519Z,6.20
2023-02-22T08:22:34.314Z,6.30
2023-02-22T08:25:04.949Z,6.50
2023-02-22T08:27:44.250Z,6.80
2023-02-22T08:30:15.908Z,7.00
2023-02-22T08:32:44.108Z,7.20
2023-02-22T08:35:14.579Z,7.50
2023-02-22T08:37:45.673Z,7.80
2023-02-22T08:40:17.299Z,7.90
2023-02-22T08:42:56.685Z,8.10
2023-02-22T08:45:36.283Z,8.30
2023-02-22T08:48:07.199Z,8.50
2023-02-22T08:50:38.315Z,8.70
2023-02-22T08:53:11.395Z,8.80
2023-02-22T08:55:42.675Z,8.90
2023-02-22T08:58:17.206Z,9.10
2023-02-22T09:00:50.671Z,9.30
2023-02-22T09:03:20.467Z,9.40
2023-02-22T09:05:48.977Z,9.60
2023-02-22T09:08:20.770Z,9.80
2023-02-22T09:10:51.406Z,10.00
2023-02-22T09:13:24.180Z,10.20
2023-02-22T09:15:52.443Z,10.20
2023-02-22T09:18:24.532Z,10.20
2023-02-22T09:20:56.246Z,10.40
2023-02-22T09:23:25.944Z,10.60
2023-02-22T09:25:54.148Z,10.70
2023-02-22T09:28:23.765Z,10.80
2023-02-22T09:30:51.937Z,11.00
2023-02-22T09:33:21.697Z,11.10
2023-02-22T09:35:51.057Z,11.20
2023-02-22T09:38:22.873Z,11.50
2023-02-22T09:40:54.426Z,11.70
2023-02-22T09:43:40.627Z,11.80
2023-02-22T09:46:20.347Z,11.90
2023-02-22T09:49:08.945Z,11.90
2023-02-22T09:51:43.205Z,12.00
2023-02-22T09:54:20.927Z,12.20
2023-02-22T09:56:51.399Z,12.30
2023-02-22T09:59:27.149Z,12.30
2023-02-22T10:02:06.727Z,12.40
2023-02-22T10:04:44.505Z,12.50
2023-02-22T10:07:19.486Z,12.60
2023-02-22T10:09:50.035Z,12.60
2023-02-22T10:12:27.194Z,12.60
2023-02-22T10:15:16.122Z,12.80
2023-02-22T10:17:53.794Z,12.60
2023-02-22T10:20:37.327Z,12.80
2023-02-22T10:23:15.008Z,13.10
2023-02-22T10:25:48.379Z,13.30
2023-02-22T10:28:22.569Z,13.30
2023-02-22T10:30:59.130Z,13.40
2023-02-22T10:33:31.524Z,13.10
2023-02-22T10:35:59.961Z,13.10
2023-02-22T10:38:30.723Z,13.30
2023-02-22T10:41:04.423Z,13.20
2023-02-22T10:43:33.566Z,13.20
2023-02-22T10:46:05.450Z,13.30
2023-02-22T10:48:38.245Z,13.30
2023-02-22T10:51:08.615Z,13.40
2023-02-22T10:53:38.477Z,13.50
2023-02-22T10:56:14.040Z,13.60
2023-02-22T10:58:44.458Z,13.70
2023-02-22T11:01:28.705Z,13.80
2023-02-22T11:04:02.711Z,14.00
2023-02-22T11:06:31.772Z,14.10
2023-02-22T11:09:15.458Z,14.20
2023-02-22T11:11:45.983Z,14.30
2023-02-22T11:14:25.784Z,14.50
2023-02-22T11:16:57.873Z,14.70
2023-02-22T11:19:28.276Z,14.70
2023-02-22T11:21:59.182Z,14.90
2023-02-22T11:24:37.280Z,14.90
2023-02-22T11:27:25.378Z,15.00
2023-02-22T11:29:53.967Z,15.10
2023-02-22T11:32:24.672Z,15.10
2023-02-22T11:35:03.488Z,15.30
2023-02-22T11:37:38.092Z,15.20
2023-02-22T11:40:13.221Z,15.10
2023-02-22T11:42:41.327Z,15.20
2023-02-22T11:45:13.443Z,15.30
2023-02-22T11:47:54.948Z,15.50
2023-02-22T11:50:30.877Z,15.50
2023-02-22T11:53:22.157Z,15.50
2023-02-22T11:56:04.844Z,15.70
2023-02-22T11:58:42.727Z,15.80
2023-02-22T12:01:20.988Z,15.80
2023-02-22T12:04:21.112Z,15.80
2023-02-22T12:06:58.724Z,16.00
2023-02-22T12:09:36.931Z,15.80
2023-02-22T12:12:15.056Z,15.50
2023-02-22T12:14:55.358Z,15.20
2023-02-22T12:17:35.253Z,15.10
2023-02-22T12:20:19.579Z,14.90
2023-02-22T12:22:56.506Z,14.70
2023-02-22T12:25:30.032Z,14.70
2023-02-22T12:28:10.089Z,14.80
2023-02-22T12:30:47.966Z,15.00
2023-02-22T12:33:20.021Z,15.10
2023-02-22T12:35:55.747Z,15.00
2023-02-22T12:38:33.805Z,15.00
2023-02-22T12:41:09.500Z,15.20
2023-02-22T12:43:42.278Z,15.10
2023-02-22T12:46:16.141Z,15.10
2023-02-22T12:48:49.537Z,15.00
2023-02-22T12:51:28.284Z,15.10
2023-02-22T12:54:08.569Z,15.20
2023-02-22T12:56:43.029Z,15.30
2023-02-22T12:59:19.331Z,15.30
2023-02-22T13:01:54.072Z,15.30
2023-02-22T13:04:22.728Z,15.40
2023-02-22T13:07:19.269Z,15.40
2023-02-22T13:10:20.647Z,15.40
2023-02-22T13:12:55.126Z,15.20
2023-02-22T13:15:30.319Z,15.10
2023-02-22T13:18:08.579Z,15.10
2023-02-22T13:20:41.915Z,15.20
2023-02-22T13:23:19.258Z,15.30
2023-02-22T13:25:55.311Z,15.30
2023-02-22T13:28:30.278Z,15.20
2023-02-22T13:31:11.345Z,15.20
2023-02-22T13:34:02.946Z,15.20
2023-02-22T13:36:39.288Z,15.20
2023-02-22T13:39:28.000Z,15.20
2023-02-22T13:42:26.677Z,15.10
2023-02-22T13:45:24.506Z,14.80
2023-02-22T13:48:19.294Z,14.60
2023-02-22T13:51:12.133Z,14.30
2023-02-22T13:53:50.538Z,14.40
2023-02-22T13:56:21.552Z,14.30
2023-02-22T13:58:52.565Z,14.30
2023-02-22T14:01:44.089Z,14.30
2023-02-22T14:04:33.782Z,14.20
2023-02-22T14:07:03.676Z,14.10
2023-02-22T14:09:48.296Z,14.00
2023-02-22T14:12:51.847Z,14.00
2023-02-22T14:15:30.900Z,13.90
2023-02-22T14:18:02.030Z,13.90
2023-02-22T14:20:32.536Z,14.00
2023-02-22T14:23:29.998Z,13.80
2023-02-22T14:26:10.096Z,13.80
2023-02-22T14:28:51.252Z,13.80
2023-02-22T14:31:34.914Z,13.80
2023-02-22T14:34:10.439Z,13.90
2023-02-22T14:36:45.846Z,13.80
2023-02-22T14:39:33.963Z,13.80
2023-02-22T14:42:07.625Z,13.70
2023-02-22T14:44:42.811Z,13.70
2023-02-22T14:47:20.181Z,13.70
2023-02-22T14:49:52.523Z,13.70
2023-02-22T14:52:25.810Z,13.80
2023-02-22T14:55:04.571Z,13.70
2023-02-22T14:57:42.301Z,13.60
2023-02-22T15:00:21.068Z,13.60
2023-02-22T15:02:52.416Z,13.50
2023-02-22T15:05:21.415Z,13.50
2023-02-22T15:07:55.758Z,13.40
2023-02-22T15:10:42.908Z,13.40
2023-02-22T15:13:19.248Z,13.40
2023-02-22T15:15:50.644Z,13.50
2023-02-22T15:18:30.163Z,13.50
2023-02-22T15:21:05.898Z,13.50
2023-02-22T15:23:43.059Z,13.50
2023-02-22T15:26:18.499Z,13.50
2023-02-22T15:28:46.930Z,13.50
2023-02-22T15:31:25.902Z,13.40
2023-02-22T15:33:55.542Z,13.50
2023-02-22T15:36:27.788Z,13.40
2023-02-22T15:38:56.987Z,13.40
2023-02-22T15:41:29.573Z,13.50
2023-02-22T15:44:17.828Z,13.40
2023-02-22T15:46:55.298Z,13.40
2023-02-22T15:49:25.899Z,13.30
2023-02-22T15:52:05.342Z,13.30
2023-02-22T15:54:44.878Z,13.30
2023-02-22T15:57:17.181Z,13.20
2023-02-22T15:59:50.077Z,13.10
2023-02-22T16:02:34.239Z,13.20
2023-02-22T16:05:06.739Z,13.10
2023-02-22T16:07:39.902Z,13.10
2023-02-22T16:10:10.140Z,13.00
2023-02-22T16:12:38.242Z,13.00
2023-02-22T16:15:17.881Z,13.00
2023-02-22T16:18:01.542Z,12.80
2023-02-22T16:20:33.336Z,12.90
2023-02-22T16:23:01.651Z,12.80
2023-02-22T16:25:35.681Z,12.80
2023-02-22T16:28:25.957Z,12.80
2023-02-22T16:30:59.036Z,12.80
2023-02-22T16:33:33.833Z,12.80
2023-02-22T16:36:08.202Z,12.80
2023-02-22T16:38:38.586Z,12.80
2023-02-22T16:41:08.352Z,12.80
2023-02-22T16:43:37.057Z,12.70
2023-02-22T16:46:07.065Z,12.70
2023-02-22T16:48:38.328Z,12.60
2023-02-22T16:51:14.989Z,12.60
2023-02-22T16:53:44.646Z,12.50
2023-02-22T16:56:16.465Z,12.60
2023-02-22T16:58:46.528Z,12.50
2023-02-22T17:01:14.703Z,12.50
2023-02-22T17:03:44.680Z,12.50
2023-02-22T17:06:13.318Z,12.50
2023-02-22T17:08:42.320Z,12.40
2023-02-22T17:11:13.292Z,12.30
2023-02-22T17:13:41.731Z,12.30
2023-02-22T17:16:15.968Z,12.30
2023-02-22T17:18:46.201Z,12.30
2023-02-22T17:21:16.672Z,12.30
2023-02-22T17:23:46.046Z,12.20
2023-02-22T17:26:16.624Z,12.30
2023-02-22T17:28:45.502Z,12.30
2023-02-22T17:31:21.832Z,12.20
2023-02-22T17:34:03.022Z,12.20
2023-02-22T17:36:32.011Z,12.10
2023-02-22T17:39:00.748Z,12.00
2023-02-22T17:41:28.924Z,12.10
2023-02-22T17:43:58.110Z,12.10
2023-02-22T17:46:26.519Z,12.00
2023-02-22T17:48:56.088Z,12.10
2023-02-22T17:51:26.399Z,12.10
2023-02-22T17:53:54.545Z,12.10
2023-02-22T17:56:39.809Z,12.00
2023-02-22T17:59:11.162Z,12.00
2023-02-22T18:01:46.322Z,12.00
2023-02-22T18:04:20.780Z,12.10
2023-02-22T18:06:52.445Z,12.10
2023-02-22T18:09:20.858Z,12.00
2023-02-22T18:11:49.158Z,11.90
2023-02-22T18:14:17.380Z,11.90
2023-02-22T18:16:46.898Z,11.80
2023-02-22T18:19:20.440Z,11.80
2023-02-22T18:21:50.240Z,11.60
2023-02-22T18:24:18.648Z,11.60
2023-02-22T18:26:47.608Z,11.60
2023-02-22T18:29:15.818Z,11.60
2023-02-22T18:31:45.416Z,11.50
2023-02-22T18:34:13.798Z,11.60
2023-02-22T18:36:43.282Z,11.50
2023-02-22T18:39:13.108Z,11.50
2023-02-22T18:41:41.299Z,11.40
2023-02-22T18:44:11.108Z,11.40
2023-02-22T18:46:39.446Z,11.40
2023-02-22T18:49:07.658Z,11.40
2023-02-22T18:51:35.863Z,11.50
2023-02-22T18:54:05.447Z,11.50
2023-02-22T18:56:34.107Z,11.40
2023-02-22T18:59:03.984Z,11.30
2023-02-22T19:01:38.646Z,11.40
2023-02-22T19:04:09.650Z,11.30
2023-02-22T19:06:38.022Z,11.30
2023-02-22T19:09:09.044Z,11.20
2023-02-22T19:11:40.150Z,11.30
2023-02-22T19:14:09.639Z,11.20
2023-02-22T19:16:37.809Z,11.20
2023-02-22T19:19:06.740Z,11.20
2023-02-22T19:21:35.089Z,11.30
2023-02-22T19:24:03.325Z,11.20
2023-02-22T19:26:32.988Z,11.30
2023-02-22T19:29:06.285Z,11.30
2023-02-22T19:31:35.353Z,11.30
2023-02-22T19:34:05.434Z,11.10
2023-02-22T19:36:34.203Z,11.10
2023-02-22T19:39:02.636Z,10.90
2023-02-22T19:41:32.316Z,11.10
2023-02-22T19:44:00.846Z,11.00
2023-02-22T19:46:29.217Z,11.00
2023-02-22T19:48:58.244Z,11.00
2023-02-22T19:51:28.245Z,11.00
2023-02-22T19:53:58.858Z,11.00
2023-02-22T19:56:31.150Z,11.00
2023-02-22T19:59:02.511Z,11.00
2023-02-22T20:01:33.676Z,11.00
2023-02-22T20:04:03.849Z,11.00
2023-02-22T20:06:35.754Z,11.00
2023-02-22T20:09:04.631Z,11.00
2023-02-22T20:11:32.914Z,11.00
2023-02-22T20:14:02.602Z,11.00
2023-02-22T20:16:30.841Z,11.00
2023-02-22T20:18:58.998Z,11.00
2023-02-22T20:21:30.858Z,11.00
2023-02-22T20:23:59.363Z,10.90
2023-02-22T20:26:29.891Z,10.80
2023-02-22T20:28:59.154Z,10.80
2023-02-22T20:31:29.673Z,10.80
2023-02-22T20:34:00.352Z,10.80
2023-02-22T20:36:31.548Z,10.80
2023-02-22T20:39:01.212Z,10.80
2023-02-22T20:41:31.619Z,10.80
2023-02-22T20:44:01.163Z,10.80
2023-02-22T20:46:32.628Z,10.70
2023-02-22T20:49:03.394Z,10.60
2023-02-22T20:51:32.827Z,10.60
2023-02-22T20:54:01.408Z,10.50
2023-02-22T20:56:31.424Z,10.50
2023-02-22T20:59:01.342Z,10.40
2023-02-22T21:01:36.181Z,10.30
2023-02-22T21:04:07.690Z,10.30
2023-02-22T21:06:37.888Z,10.30
2023-02-22T21:09:07.416Z,10.30
2023-02-22T21:11:37.115Z,10.20
2023-02-22T21:14:08.862Z,10.20
2023-02-22T21:16:38.673Z,10.20
2023-02-22T21:19:08.444Z,10.20
2023-02-22T21:21:37.295Z,10.10
2023-02-22T21:24:05.704Z,10.10
2023-02-22T21:26:35.782Z,10.10
2023-02-22T21:29:06.282Z,10.10
2023-02-22T21:31:35.359Z,10.10
2023-02-22T21:34:05.555Z,10.10
2023-02-22T21:36:33.866Z,10.10
2023-02-22T21:39:08.482Z,10.20
2023-02-22T21:41:39.201Z,10.20
2023-02-22T21:44:08.842Z,10.10
2023-02-22T21:46:37.160Z,10.10
2023-02-22T21:49:06.716Z,10.20
2023-02-22T21:51:36.191Z,10.20
2023-02-22T21:54:07.506Z,10.20
2023-02-22T21:56:37.969Z,10.10
2023-02-22T21:59:07.645Z,10.10
2023-02-22T22:01:37.707Z,10.10
2023-02-22T22:04:09.662Z,10.10
2023-02-22T22:06:37.780Z,10.20
2023-02-22T22:09:18.232Z,10.20
2023-02-22T22:11:50.874Z,10.20
2023-02-22T22:14:20.111Z,10.20
2023-02-22T22:16:49.614Z,10.20
2023-02-22T22:19:19.542Z,10.30
2023-02-22T22:21:49.134Z,10.30
2023-02-22T22:24:20.530Z,10.30
2023-02-22T22:26:51.174Z,10.30
2023-02-22T22:29:19.752Z,10.30
2023-02-22T22:31:48.328Z,10.30
2023-02-22T22:34:16.532Z,10.40
2023-02-22T22:36:46.130Z,10.40
2023-02-22T22:39:14.276Z,10.40
2023-02-22T22:41:44.163Z,10.40
2023-02-22T22:44:12.524Z,10.40
2023-02-22T22:46:41.017Z,10.30
2023-02-22T22:49:09.919Z,10.30
2023-02-22T22:51:38.240Z,10.30
2023-02-22T22:54:09.397Z,10.30
2023-02-22T22:56:39.328Z,10.20
2023-02-22T22:59:09.827Z,10.20
2023-02-22T23:01:41.121Z,10.20
2023-02-22T23:04:13.374Z,10.20
2023-02-22T23:06:43.828Z,10.20
2023-02-22T23:09:18.772Z,10.10
2023-02-22T23:11:50.983Z,10.10
2023-02-22T23:14:22.047Z,10.10
2023-02-22T23:16:52.116Z,10.00
2023-02-22T23:19:21.317Z,10.00
2023-02-22T23:21:51.011Z,10.00
2023-02-22T23:24:21.583Z,10.00
2023-02-22T23:26:50.190Z,10.00
2023-02-22T23:29:20.068Z,10.00
2023-02-22T23:31:49.054Z,10.00
2023-02-22T23:34:17.877Z,10.00
2023-02-22T23:36:46.850Z,10.00
2023-02-22T23:39:17.589Z,9.90
2023-02-22T23:41:47.221Z,9.90
2023-02-22T23:44:17.783Z,9.90
2023-02-22T23:46:48.592Z,9.90
2023-02-22T23:49:20.579Z,9.90
2023-02-22T23:51:49.950Z,9.90
2023-02-22T23:54:20.475Z,9.90
2023-02-22T23:56:56.913Z,9.90
2023-02-22T23:59:26.938Z,9.90
